createdAt,value
2024-05-09T00:00:51.388Z,96489.16
2024-05-09T00:03:21.493Z,96493.97
2024-05-09T00:05:51.667Z,96497.25
2024-05-09T00:08:21.874Z,96499.91
2024-05-09T00:10:54.958Z,96496.53
2024-05-09T00:13:25.014Z,96494.75
2024-05-09T00:15:54.934Z,96502.13
2024-05-09T00:18:25.110Z,96498.97
2024-05-09T00:20:55.195Z,96495.84
2024-05-09T00:23:25.202Z,96500.03
2024-05-09T00:25:57.898Z,96501.88
2024-05-09T00:28:28.298Z,96502.69
2024-05-09T00:30:58.262Z,96501.09
2024-05-09T00:33:28.686Z,96501.88
2024-05-09T00:35:58.844Z,96501.94
2024-05-09T00:38:28.927Z,96498.00
2024-05-09T00:41:01.741Z,96505.41
2024-05-09T00:43:32.900Z,96492.50
2024-05-09T00:46:03.106Z,96497.25
2024-05-09T00:48:33.362Z,96500.69
2024-05-09T00:51:04.688Z,96499.09
2024-05-09T00:53:35.783Z,96501.22
2024-05-09T00:56:11.113Z,96507.81
2024-05-09T00:58:41.772Z,96496.78
2024-05-09T01:01:12.429Z,96502.31
2024-05-09T01:03:42.674Z,96502.34
2024-05-09T01:06:12.854Z,96502.91
2024-05-09T01:08:42.869Z,96508.16
2024-05-09T01:11:16.632Z,96497.13
2024-05-09T01:13:46.823Z,96505.00
2024-05-09T01:16:17.058Z,96504.97
2024-05-09T01:18:47.162Z,96500.69
2024-05-09T01:21:17.262Z,96494.88
2024-05-09T01:23:49.979Z,96497.47
2024-05-09T01:26:20.075Z,96498.00
2024-05-09T01:28:50.034Z,96499.59
2024-05-09T01:31:20.070Z,96500.69
2024-05-09T01:33:50.092Z,96504.13
2024-05-09T01:36:20.139Z,96499.19
2024-05-09T01:38:52.778Z,96502.38
2024-05-09T01:41:22.822Z,96509.78
2024-05-09T01:43:53.003Z,96502.69
2024-05-09T01:46:23.115Z,96506.16
2024-05-09T01:48:53.089Z,96511.16
2024-05-09T01:51:23.111Z,96504.63
2024-05-09T01:53:57.924Z,96503.31
2024-05-09T01:56:28.006Z,96501.53
2024-05-09T01:58:58.062Z,96498.66
2024-05-09T02:01:28.045Z,96490.56
2024-05-09T02:03:58.260Z,96496.34
2024-05-09T02:06:28.575Z,96493.25
2024-05-09T02:09:01.141Z,96496.94
2024-05-09T02:11:31.087Z,96485.16
2024-05-09T02:14:01.306Z,96494.34
2024-05-09T02:16:31.250Z,96490.69
2024-05-09T02:19:01.398Z,96490.97
2024-05-09T02:21:34.303Z,96494.16
2024-05-09T02:24:07.236Z,96488.41
2024-05-09T02:26:37.166Z,96490.75
2024-05-09T02:29:07.198Z,96490.53
2024-05-09T02:31:37.141Z,96491.34
2024-05-09T02:34:07.275Z,96491.34
2024-05-09T02:36:34.657Z,96489.78
2024-05-09T02:39:07.498Z,96493.22
2024-05-09T02:41:34.836Z,96485.59
2024-05-09T02:44:04.905Z,96493.22
2024-05-09T02:46:32.288Z,96492.97
2024-05-09T02:49:02.322Z,96489.28
2024-05-09T02:51:29.683Z,96490.88
2024-05-09T02:53:59.599Z,96489.56
2024-05-09T02:56:29.627Z,96485.09
2024-05-09T02:58:59.746Z,96492.44
2024-05-09T03:01:27.067Z,96495.06
2024-05-09T03:03:57.310Z,96496.66
2024-05-09T03:06:24.850Z,96497.19
2024-05-09T03:08:54.787Z,96485.88
2024-05-09T03:11:22.897Z,96489.31
2024-05-09T03:13:57.374Z,96491.41
2024-05-09T03:16:24.612Z,96491.41
2024-05-09T03:18:54.851Z,96491.94
2024-05-09T03:21:22.240Z,96497.69
2024-05-09T03:23:52.196Z,96490.63
2024-05-09T03:26:19.579Z,96495.06
2024-05-09T03:28:49.558Z,96492.97
2024-05-09T03:31:21.394Z,96495.59
2024-05-09T03:33:51.556Z,96496.13
2024-05-09T03:36:18.916Z,96491.41
2024-05-09T03:38:50.546Z,96496.91
2024-05-09T03:41:23.135Z,96490.88
2024-05-09T03:43:53.393Z,96501.38
2024-05-09T03:46:26.059Z,96505.03
2024-05-09T03:48:53.400Z,96504.78
2024-05-09T03:51:23.326Z,96501.38
2024-05-09T03:53:50.530Z,96504.50
2024-05-09T03:56:20.573Z,96510.00
2024-05-09T03:58:47.826Z,96510.31
2024-05-09T04:01:18.006Z,96514.22
2024-05-09T04:03:48.182Z,96507.94
2024-05-09T04:06:23.597Z,96519.22
2024-05-09T04:08:50.860Z,96507.94
2024-05-09T04:11:21.107Z,96511.09
2024-05-09T04:13:48.406Z,96517.38
2024-05-09T04:16:18.475Z,96516.59
2024-05-09T04:18:48.551Z,96519.22
2024-05-09T04:21:18.526Z,96514.22
2024-05-09T04:23:45.785Z,96515.78
2024-05-09T04:26:15.902Z,96522.34
2024-05-09T04:28:43.207Z,96520.25
2024-05-09T04:31:13.080Z,96521.28
2024-05-09T04:33:40.468Z,96519.72
2024-05-09T04:36:13.284Z,96526.03
2024-05-09T04:38:40.466Z,96528.91
2024-05-09T04:41:10.542Z,96526.28
2024-05-09T04:43:37.922Z,96529.69
2024-05-09T04:46:08.133Z,96543.34
2024-05-09T04:48:35.434Z,96541.78
2024-05-09T04:51:06.120Z,96542.28
2024-05-09T04:53:36.379Z,96541.78
2024-05-09T04:56:06.725Z,96554.34
2024-05-09T04:58:33.990Z,96548.59
2024-05-09T05:01:03.991Z,96547.53
2024-05-09T05:03:31.540Z,96548.84
2024-05-09T05:06:01.704Z,96551.47
2024-05-09T05:08:29.811Z,96549.13
2024-05-09T05:11:02.610Z,96549.91
2024-05-09T05:13:31.505Z,96553.34
2024-05-09T05:16:01.575Z,96546.25
2024-05-09T05:18:29.570Z,96551.78
2024-05-09T05:21:00.145Z,96548.88
2024-05-09T05:23:27.590Z,96550.19
2024-05-09T05:25:57.818Z,96550.72
2024-05-09T05:28:27.921Z,96549.66
2024-05-09T05:30:58.742Z,96550.19
2024-05-09T05:33:26.178Z,96553.59
2024-05-09T05:35:57.498Z,96548.63
2024-05-09T05:38:28.595Z,96544.94
2024-05-09T05:40:56.246Z,96556.22
2024-05-09T05:43:26.395Z,96562.78
2024-05-09T05:45:56.375Z,96559.88
2024-05-09T05:48:26.512Z,96553.84
2024-05-09T05:50:53.918Z,96554.13
2024-05-09T05:53:24.093Z,96558.06
2024-05-09T05:55:51.592Z,96556.50
2024-05-09T05:58:22.728Z,96553.34
2024-05-09T06:00:53.422Z,96559.13
2024-05-09T06:03:26.270Z,96561.75
2024-05-09T06:05:53.635Z,96559.09
2024-05-09T06:08:26.268Z,96553.34
2024-05-09T06:10:55.381Z,96552.34
2024-05-09T06:13:25.510Z,96554.22
2024-05-09T06:15:52.725Z,96556.19
2024-05-09T06:18:25.569Z,96552.94
2024-05-09T06:20:52.975Z,96555.03
2024-05-09T06:23:23.074Z,96545.81
2024-05-09T06:25:50.459Z,96552.50
2024-05-09T06:30:47.434Z,96548.88
2024-05-09T06:33:17.701Z,96543.78
2024-05-09T06:35:47.864Z,96541.00
2024-05-09T06:38:17.902Z,96538.66
2024-05-09T06:40:45.238Z,96545.78
2024-05-09T06:43:18.006Z,96536.81
2024-05-09T06:45:48.253Z,96534.97
2024-05-09T06:48:21.564Z,96532.03
2024-05-09T06:50:52.270Z,96538.16
2024-05-09T06:53:24.717Z,96526.75
2024-05-09T06:55:52.133Z,96529.34
2024-05-09T06:58:22.108Z,96522.41
2024-05-09T07:00:49.403Z,96526.97
2024-05-09T07:03:19.964Z,96523.19
2024-05-09T07:05:49.242Z,96527.38
2024-05-09T07:08:22.672Z,96513.28
2024-05-09T07:10:50.245Z,96519.09
2024-05-09T07:13:20.817Z,96514.78
2024-05-09T07:15:48.127Z,96511.16
2024-05-09T07:18:20.437Z,96509.78
2024-05-09T07:20:49.714Z,96508.25
2024-05-09T07:23:23.338Z,96502.88
2024-05-09T07:25:50.862Z,96509.03
2024-05-09T07:28:22.186Z,96498.09
2024-05-09T07:30:49.497Z,96497.22
2024-05-09T07:33:22.075Z,96484.75
2024-05-09T07:35:50.935Z,96494.75
2024-05-09T07:38:24.340Z,96482.69
2024-05-09T07:40:51.798Z,96483.00
2024-05-09T07:43:21.794Z,96483.03
2024-05-09T07:45:53.581Z,96480.97
2024-05-09T07:52:39.271Z,96476.03
2024-05-09T07:53:52.391Z,96474.56
2024-05-09T07:56:23.869Z,96473.03
2024-05-09T07:58:55.903Z,96461.94
2024-05-09T08:01:26.663Z,96464.38
2024-05-09T08:03:57.284Z,96468.72
2024-05-09T08:06:25.755Z,96465.19
2024-05-09T08:09:03.034Z,96450.91
2024-05-09T08:11:35.151Z,96441.13
2024-05-09T08:14:05.133Z,96447.09
2024-05-09T08:16:32.438Z,96433.28
2024-05-09T08:19:03.384Z,96436.47
2024-05-09T08:21:30.780Z,96434.06
2024-05-09T08:24:03.425Z,96422.91
2024-05-09T08:26:30.759Z,96424.63
2024-05-09T08:29:00.772Z,96422.88
2024-05-09T08:31:28.291Z,96418.34
2024-05-09T08:33:58.554Z,96417.31
2024-05-09T08:36:26.006Z,96418.66
2024-05-09T08:38:56.206Z,96415.34
2024-05-09T08:41:26.627Z,96412.91
2024-05-09T08:43:56.660Z,96411.63
2024-05-09T08:46:25.992Z,96397.81
2024-05-09T08:49:00.575Z,96409.84
2024-05-09T08:51:27.999Z,96394.78
2024-05-09T08:53:58.078Z,96400.44
2024-05-09T08:56:31.046Z,96391.19
2024-05-09T08:59:04.653Z,96390.34
2024-05-09T09:01:34.202Z,96386.78
2024-05-09T09:04:07.089Z,96384.91
2024-05-09T09:06:35.863Z,96388.50
2024-05-09T09:09:06.804Z,96380.69
2024-05-09T09:11:36.878Z,96380.41
2024-05-09T09:14:06.899Z,96372.84
2024-05-09T09:16:34.401Z,96371.13
2024-05-09T09:19:04.973Z,96374.69
2024-05-09T09:21:32.579Z,96360.06
2024-05-09T09:24:02.906Z,96362.47
2024-05-09T09:26:31.493Z,96360.72
2024-05-09T09:29:05.570Z,96356.72
2024-05-09T09:31:33.045Z,96356.25
2024-05-09T09:34:10.193Z,96341.84
2024-05-09T09:36:42.792Z,96343.34
2024-05-09T09:39:13.718Z,96330.75
2024-05-09T09:41:43.916Z,96331.19
2024-05-09T09:44:16.851Z,96322.84
2024-05-09T09:46:45.718Z,96333.47
2024-05-09T09:49:16.007Z,96331.94
2024-05-09T09:51:44.814Z,96330.63
2024-05-09T09:54:16.109Z,96328.09
2024-05-09T09:56:44.910Z,96319.69
2024-05-09T09:59:18.388Z,96320.38
2024-05-09T10:01:46.201Z,96316.69
2024-05-09T10:04:19.021Z,96301.41
2024-05-09T10:06:50.854Z,96301.44
2024-05-09T10:09:23.023Z,96297.66
2024-05-09T10:11:59.943Z,96294.66
2024-05-09T10:14:34.682Z,96296.91
2024-05-09T10:17:05.276Z,96290.50
2024-05-09T10:19:35.441Z,96294.63
2024-05-09T10:22:03.844Z,96294.59
2024-05-09T10:24:49.614Z,96293.03
2024-05-09T10:27:17.448Z,96293.88
2024-05-09T10:30:01.337Z,96289.50
2024-05-09T10:32:29.733Z,96289.63
2024-05-09T10:35:03.643Z,96293.66
2024-05-09T10:37:32.292Z,96288.28
2024-05-09T10:40:05.479Z,96287.16
2024-05-09T10:42:36.300Z,96285.44
2024-05-09T10:45:10.564Z,96288.13
2024-05-09T10:47:38.359Z,96278.81
2024-05-09T10:50:18.312Z,96277.13
2024-05-09T10:52:53.360Z,96268.53
2024-05-09T10:55:23.682Z,96272.84
2024-05-09T10:57:51.212Z,96271.13
2024-05-09T11:00:36.560Z,96265.50
2024-05-09T11:03:04.976Z,96272.09
2024-05-09T11:05:36.273Z,96261.91
2024-05-09T11:08:04.342Z,96261.66
2024-05-09T11:10:34.818Z,96257.31
2024-05-09T11:13:02.379Z,96255.22
2024-05-09T11:15:43.730Z,96251.66
2024-05-09T11:18:24.761Z,96243.09
2024-05-09T11:20:56.580Z,96245.34
2024-05-09T11:23:26.663Z,96244.94
2024-05-09T11:25:58.437Z,96243.81
2024-05-09T11:28:28.948Z,96238.38
2024-05-09T11:31:11.379Z,96231.81
2024-05-09T11:33:39.771Z,96229.28
2024-05-09T11:36:11.011Z,96241.41
2024-05-09T11:38:38.347Z,96237.94
2024-05-09T11:41:09.499Z,96233.41
2024-05-09T11:43:36.983Z,96227.63
2024-05-09T11:46:09.856Z,96225.34
2024-05-09T11:48:37.442Z,96223.94
2024-05-09T11:51:08.391Z,96224.34
2024-05-09T11:53:35.666Z,96224.69
2024-05-09T11:56:05.794Z,96225.34
2024-05-09T11:58:34.938Z,96216.06
2024-05-09T12:01:05.112Z,96208.19
2024-05-09T12:03:35.550Z,96214.91
2024-05-09T12:06:07.114Z,96209.84
2024-05-09T12:08:34.597Z,96212.50
2024-05-09T12:11:04.726Z,96210.25
2024-05-09T12:13:32.066Z,96199.53
2024-05-09T12:16:02.339Z,96199.53
2024-05-09T12:18:29.857Z,96199.81
2024-05-09T12:21:02.821Z,96199.41
2024-05-09T12:23:30.081Z,96189.41
2024-05-09T12:26:01.318Z,96183.63
2024-05-09T12:28:29.056Z,96187.00
2024-05-09T12:30:59.166Z,96184.25
2024-05-09T12:33:26.671Z,96182.28
2024-05-09T12:35:56.738Z,96176.16
2024-05-09T12:38:26.784Z,96180.81
2024-05-09T12:40:56.863Z,96173.47
2024-05-09T12:43:24.281Z,96171.63
2024-05-09T12:45:54.506Z,96171.75
2024-05-09T12:48:22.012Z,96174.13
2024-05-09T12:50:52.000Z,96165.03
2024-05-09T12:53:19.336Z,96148.28
2024-05-09T12:55:56.947Z,96156.75
2024-05-09T12:58:27.908Z,96158.72
2024-05-09T13:00:58.219Z,96158.72
2024-05-09T13:03:25.954Z,96145.38
2024-05-09T13:05:56.679Z,96138.53
2024-05-09T13:08:24.125Z,96143.16
2024-05-09T13:10:56.818Z,96138.94
2024-05-09T13:13:24.441Z,96140.13
2024-05-09T13:15:55.360Z,96135.19
2024-05-09T13:18:22.890Z,96140.22
2024-05-09T13:20:52.890Z,96125.75
2024-05-09T13:23:20.602Z,96127.66
2024-05-09T13:25:50.680Z,96135.63
2024-05-09T13:28:23.051Z,96121.03
2024-05-09T13:30:53.260Z,96123.63
2024-05-09T13:33:21.083Z,96118.56
2024-05-09T13:35:51.395Z,96119.38
2024-05-09T13:38:20.130Z,96114.44
2024-05-09T13:40:50.912Z,96103.72
2024-05-09T13:43:23.447Z,96100.63
2024-05-09T13:45:55.417Z,96099.53
2024-05-09T13:48:23.418Z,96099.94
2024-05-09T13:50:53.717Z,96081.88
2024-05-09T13:53:21.018Z,96082.63
2024-05-09T13:55:51.605Z,96097.53
2024-05-09T13:58:23.758Z,96098.25
2024-05-09T14:00:54.304Z,96092.06
2024-05-09T14:03:22.003Z,96097.38
2024-05-09T14:05:53.052Z,96090.72
2024-05-09T14:08:22.555Z,96082.53
2024-05-09T14:10:54.080Z,96087.41
2024-05-09T14:13:24.419Z,96085.09
2024-05-09T14:15:54.604Z,96084.00
2024-05-09T14:18:22.472Z,96072.88
2024-05-09T14:20:53.074Z,96072.47
2024-05-09T14:23:20.460Z,96068.09
2024-05-09T14:25:53.094Z,96074.09
2024-05-09T14:28:20.853Z,96063.38
2024-05-09T14:30:56.712Z,96058.81
2024-05-09T14:33:27.129Z,96066.13
2024-05-09T14:35:57.366Z,96064.28
2024-05-09T14:38:25.099Z,96065.00
2024-05-09T14:40:55.575Z,96049.75
2024-05-09T14:43:23.294Z,96052.78
2024-05-09T14:45:56.581Z,96052.88
2024-05-09T14:48:23.979Z,96059.69
2024-05-09T14:50:54.195Z,96061.19
2024-05-09T14:53:23.783Z,96051.94
2024-05-09T14:55:53.927Z,96038.91
2024-05-09T14:58:21.383Z,96050.34
2024-05-09T15:00:52.196Z,96035.75
2024-05-09T15:03:23.041Z,96053.38
2024-05-09T15:05:53.672Z,96045.75
2024-05-09T15:08:21.299Z,96042.72
2024-05-09T15:10:52.704Z,96044.97
2024-05-09T15:13:21.291Z,96042.72
2024-05-09T15:15:51.819Z,96043.44
2024-05-09T15:18:22.142Z,96040.22
2024-05-09T15:20:52.493Z,96042.06
2024-05-09T15:23:20.428Z,96050.41
2024-05-09T15:25:50.541Z,96037.72
2024-05-09T15:28:18.612Z,96047.59
2024-05-09T15:30:48.923Z,96044.09
2024-05-09T15:33:17.437Z,96045.94
2024-05-09T15:35:50.583Z,96043.59
2024-05-09T15:38:18.665Z,96050.22
2024-05-09T15:40:49.156Z,96044.88
2024-05-09T15:43:16.741Z,96042.63
2024-05-09T15:45:47.118Z,96041.06
2024-05-09T15:48:14.789Z,96045.59
2024-05-09T15:50:45.473Z,96032.09
2024-05-09T15:53:15.703Z,96035.84
2024-05-09T15:55:45.783Z,96036.25
2024-05-09T15:58:13.455Z,96032.47
2024-05-09T16:00:46.293Z,96045.44
2024-05-09T16:03:15.659Z,96035.44
2024-05-09T16:05:47.518Z,96033.69
2024-05-09T16:08:18.402Z,96028.97
2024-05-09T16:10:49.796Z,96038.81
2024-05-09T16:13:17.937Z,96033.47
2024-05-09T16:15:48.509Z,96033.69
2024-05-09T16:18:16.206Z,96026.66
2024-05-09T16:20:49.396Z,96021.66
2024-05-09T16:23:23.824Z,96027.63
2024-05-09T16:25:52.009Z,96023.63
2024-05-09T16:28:23.870Z,96036.41
2024-05-09T16:30:52.032Z,96040.47
2024-05-09T16:33:24.101Z,96037.03
2024-05-09T16:35:51.818Z,96042.22
2024-05-09T16:38:24.613Z,96045.19
2024-05-09T16:40:52.474Z,96040.88
2024-05-09T16:43:22.824Z,96039.66
2024-05-09T16:45:51.345Z,96043.47
2024-05-09T16:48:21.434Z,96037.34
2024-05-09T16:50:49.384Z,96035.09
2024-05-09T16:53:19.616Z,96035.78
2024-05-09T16:55:49.916Z,96033.81
2024-05-09T16:58:20.429Z,96038.16
2024-05-09T17:00:48.275Z,96044.28
2024-05-09T17:03:18.615Z,96038.66
2024-05-09T17:05:47.403Z,96034.63
2024-05-09T17:08:20.064Z,96041.94
2024-05-09T17:10:50.584Z,96036.78
2024-05-09T17:13:21.460Z,96042.38
2024-05-09T17:15:52.370Z,96035.81
2024-05-09T17:18:22.632Z,96044.34
2024-05-09T17:20:51.643Z,96045.50
2024-05-09T17:23:21.758Z,96051.41
2024-05-09T17:25:52.192Z,96053.38
2024-05-09T17:28:22.481Z,96063.28
2024-05-09T17:30:50.010Z,96052.66
2024-05-09T17:33:20.241Z,96057.44
2024-05-09T17:35:50.765Z,96060.00
2024-05-09T17:38:23.082Z,96058.69
2024-05-09T17:40:53.882Z,96065.13
2024-05-09T17:43:24.172Z,96062.56
2024-05-09T17:45:51.735Z,96069.22
2024-05-09T17:48:21.985Z,96062.22
2024-05-09T17:50:52.192Z,96059.00
2024-05-09T17:53:20.378Z,96065.63
2024-05-09T17:55:54.085Z,96084.44
2024-05-09T17:58:24.437Z,96076.22
2024-05-09T18:00:54.896Z,96079.28
2024-05-09T18:03:23.494Z,96076.84
2024-05-09T18:05:54.472Z,96085.47
2024-05-09T18:08:21.864Z,96094.75
2024-05-09T18:10:54.800Z,96093.09
2024-05-09T18:13:26.483Z,96098.19
2024-05-09T18:15:56.944Z,96098.69
2024-05-09T18:18:24.389Z,96103.13
2024-05-09T18:20:54.747Z,96099.22
2024-05-09T18:23:22.174Z,96111.28
2024-05-09T18:25:54.822Z,96109.72
2024-05-09T18:28:25.582Z,96115.25
2024-05-09T18:30:55.900Z,96117.00
2024-05-09T18:33:24.622Z,96118.94
2024-05-09T18:35:55.071Z,96109.56
2024-05-09T18:38:27.070Z,96117.25
2024-05-09T18:40:54.583Z,96123.22
2024-05-09T18:43:31.689Z,96119.66
2024-05-09T18:46:08.614Z,96121.56
2024-05-09T18:48:36.375Z,96131.94
2024-05-09T18:51:07.068Z,96129.00
2024-05-09T18:53:34.422Z,96120.91
2024-05-09T18:56:04.428Z,96136.25
2024-05-09T18:58:34.629Z,96137.22
2024-05-09T19:01:05.104Z,96140.81
2024-05-09T19:03:35.508Z,96140.53
2024-05-09T19:06:05.902Z,96138.50
2024-05-09T19:08:33.308Z,96154.75
2024-05-09T19:11:03.390Z,96151.50
2024-05-09T19:13:32.022Z,96157.44
2024-05-09T19:16:04.772Z,96156.97
2024-05-09T19:18:32.349Z,96167.13
2024-05-09T19:21:02.529Z,96166.81
2024-05-09T19:23:32.503Z,96169.78
2024-05-09T19:26:03.209Z,96183.22
2024-05-09T19:28:30.672Z,96187.28
2024-05-09T19:31:00.710Z,96191.03
2024-05-09T19:33:32.189Z,96185.88
2024-05-09T19:36:02.202Z,96187.59
2024-05-09T19:38:29.447Z,96199.00
2024-05-09T19:40:59.390Z,96211.31
2024-05-09T19:43:27.539Z,96204.63
2024-05-09T19:45:57.682Z,96210.56
2024-05-09T19:48:25.180Z,96214.47
2024-05-09T19:50:57.948Z,96213.84
2024-05-09T19:53:25.417Z,96217.28
2024-05-09T19:55:55.766Z,96232.41
2024-05-09T19:58:23.008Z,96222.41
2024-05-09T20:00:53.279Z,96230.84
2024-05-09T20:03:20.829Z,96231.13
2024-05-09T20:05:50.929Z,96231.75
2024-05-09T20:08:21.073Z,96236.13
2024-05-09T20:10:51.213Z,96237.22
2024-05-09T20:13:18.680Z,96241.41
2024-05-09T20:15:48.859Z,96239.25
2024-05-09T20:18:18.288Z,96246.88
2024-05-09T20:20:50.636Z,96254.53
2024-05-09T20:23:22.383Z,96249.22
2024-05-09T20:25:52.339Z,96261.53
2024-05-09T20:28:19.729Z,96260.28
2024-05-09T20:30:49.899Z,96261.06
2024-05-09T20:33:17.412Z,96258.72
2024-05-09T20:35:47.633Z,96268.53
2024-05-09T20:38:14.932Z,96272.28
2024-05-09T20:40:47.886Z,96273.06
2024-05-09T20:43:15.616Z,96282.88
2024-05-09T20:45:45.718Z,96281.13
2024-05-09T20:48:13.371Z,96276.59
2024-05-09T20:50:44.309Z,96278.78
2024-05-09T20:53:14.130Z,96282.03
2024-05-09T20:55:47.759Z,96289.81
2024-05-09T20:58:15.469Z,96297.00
2024-05-09T21:00:46.958Z,96299.19
2024-05-09T21:03:16.405Z,96304.00
2024-05-09T21:05:48.400Z,96302.44
2024-05-09T21:08:16.529Z,96304.59
2024-05-09T21:10:49.391Z,96314.56
2024-05-09T21:13:16.833Z,96307.53
2024-05-09T21:15:47.165Z,96313.75
2024-05-09T21:18:14.710Z,96315.13
2024-05-09T21:20:44.981Z,96311.53
2024-05-09T21:23:12.259Z,96323.22
2024-05-09T21:25:42.224Z,96319.16
2024-05-09T21:28:12.165Z,96314.59
2024-05-09T21:30:43.260Z,96316.41
2024-05-09T21:33:13.063Z,96314.78
2024-05-09T21:35:45.307Z,96318.28
2024-05-09T21:38:14.238Z,96326.13
2024-05-09T21:40:45.324Z,96327.63
2024-05-09T21:43:15.620Z,96331.16
2024-05-09T21:45:46.034Z,96325.69
2024-05-09T21:48:13.838Z,96328.44
2024-05-09T21:50:43.932Z,96331.03
2024-05-09T21:53:12.429Z,96329.41
2024-05-09T21:55:43.271Z,96335.59
2024-05-09T21:58:11.989Z,96337.47
2024-05-09T22:00:46.468Z,96343.63
2024-05-09T22:03:14.371Z,96343.44
2024-05-09T22:05:45.210Z,96344.81
2024-05-09T22:08:13.083Z,96352.25
2024-05-09T22:10:43.135Z,96355.41
2024-05-09T22:13:10.784Z,96359.13
2024-05-09T22:15:41.839Z,96361.47
2024-05-09T22:18:12.219Z,96362.25
2024-05-09T22:20:45.813Z,96364.78
2024-05-09T22:23:15.202Z,96364.97
2024-05-09T22:25:45.266Z,96362.03
2024-05-09T22:28:15.094Z,96363.59
2024-05-09T22:30:47.415Z,96370.09
2024-05-09T22:33:18.131Z,96361.28
2024-05-09T22:35:48.287Z,96369.00
2024-05-09T22:38:15.665Z,96368.94
2024-05-09T22:40:48.991Z,96356.88
2024-05-09T22:43:22.341Z,96357.56
2024-05-09T22:45:54.973Z,96364.81
2024-05-09T22:48:26.295Z,96368.81
2024-05-09T22:50:56.656Z,96364.63
2024-05-09T22:53:25.544Z,96366.19
2024-05-09T22:55:56.121Z,96370.88
2024-05-09T22:58:23.912Z,96369.31
2024-05-09T23:00:54.207Z,96369.13
2024-05-09T23:03:22.931Z,96361.47
2024-05-09T23:05:56.134Z,96367.91
2024-05-09T23:08:23.362Z,96372.22
2024-05-09T23:10:53.799Z,96372.78
2024-05-09T23:13:21.292Z,96380.22
2024-05-09T23:15:51.375Z,96379.25
2024-05-09T23:18:19.017Z,96377.69
2024-05-09T23:20:48.999Z,96385.13
2024-05-09T23:23:19.244Z,96384.16
2024-05-09T23:25:49.284Z,96380.25
2024-05-09T23:28:16.552Z,96382.69
2024-05-09T23:30:46.561Z,96380.63
2024-05-09T23:33:14.469Z,96380.13
2024-05-09T23:35:45.816Z,96380.41
2024-05-09T23:38:13.670Z,96376.50
2024-05-09T23:40:46.451Z,96383.91
2024-05-09T23:43:14.422Z,96387.16
2024-05-09T23:45:44.933Z,96376.66
2024-05-09T23:48:12.551Z,96378.59
2024-05-09T23:50:42.722Z,96376.84
2024-05-09T23:53:10.952Z,96375.06
2024-05-09T23:55:41.416Z,96371.91
2024-05-09T23:58:11.798Z,96369.56
